sensor_id;sensor_type;location;lat;lon;timestamp;pressure;altitude;pressure_sealevel;temperature;humidity
10261;BME280;5175;42.606;23.388;2023-07-31T00:00:13;93475.53;;;19.69;100.00
10261;BME280;5175;42.606;23.388;2023-07-31T00:02:39;93479.03;;;19.57;100.00
10261;BME280;5175;42.606;23.388;2023-07-31T00:05:08;93461.81;;;19.38;100.00
10261;BME280;5175;42.606;23.388;2023-07-31T00:07:36;93474.31;;;19.30;100.00
10261;BME280;5175;42.606;23.388;2023-07-31T00:10:03;93474.88;;;19.23;100.00
10261;BME280;5175;42.606;23.388;2023-07-31T00:12:30;93483.78;;;19.24;100.00
10261;BME280;5175;42.606;23.388;2023-07-31T00:14:58;93473.63;;;19.21;100.00
10261;BME280;5175;42.606;23.388;2023-07-31T00:17:24;93479.38;;;19.31;100.00
10261;BME280;5175;42.606;23.388;2023-07-31T00:19:51;93479.84;;;19.46;100.00
10261;BME280;5175;42.606;23.388;2023-07-31T00:22:18;93478.81;;;19.50;100.00
10261;BME280;5175;42.606;23.388;2023-07-31T00:24:46;93478.34;;;19.60;100.00
10261;BME280;5175;42.606;23.388;2023-07-31T00:27:13;93471.81;;;19.61;100.00
10261;BME280;5175;42.606;23.388;2023-07-31T00:29:39;93481.19;;;19.52;100.00
10261;BME280;5175;42.606;23.388;2023-07-31T00:32:07;93477.38;;;19.41;100.00
10261;BME280;5175;42.606;23.388;2023-07-31T00:34:34;93469.78;;;19.58;100.00
10261;BME280;5175;42.606;23.388;2023-07-31T00:37:00;93463.66;;;19.73;100.00
10261;BME280;5175;42.606;23.388;2023-07-31T00:39:27;93458.94;;;19.70;100.00
10261;BME280;5175;42.606;23.388;2023-07-31T00:41:55;93446.50;;;19.81;100.00
10261;BME280;5175;42.606;23.388;2023-07-31T00:44:22;93446.31;;;19.62;100.00
10261;BME280;5175;42.606;23.388;2023-07-31T00:46:49;93436.88;;;19.56;100.00
10261;BME280;5175;42.606;23.388;2023-07-31T00:49:16;93435.09;;;19.24;100.00
10261;BME280;5175;42.606;23.388;2023-07-31T00:51:42;93438.03;;;19.31;100.00
10261;BME280;5175;42.606;23.388;2023-07-31T00:54:09;93444.31;;;19.47;100.00
10261;BME280;5175;42.606;23.388;2023-07-31T00:56:37;93442.53;;;19.51;100.00
10261;BME280;5175;42.606;23.388;2023-07-31T00:59:06;93450.00;;;19.70;100.00
10261;BME280;5175;42.606;23.388;2023-07-31T01:01:32;93451.41;;;19.64;100.00
10261;BME280;5175;42.606;23.388;2023-07-31T01:03:59;93448.25;;;19.62;100.00
10261;BME280;5175;42.606;23.388;2023-07-31T01:06:44;93441.13;;;19.69;100.00
10261;BME280;5175;42.606;23.388;2023-07-31T01:09:17;93444.06;;;19.64;100.00
10261;BME280;5175;42.606;23.388;2023-07-31T01:11:49;93437.06;;;19.63;100.00
10261;BME280;5175;42.606;23.388;2023-07-31T01:14:20;93427.53;;;19.42;100.00
10261;BME280;5175;42.606;23.388;2023-07-31T01:16:46;93433.16;;;19.36;100.00
10261;BME280;5175;42.606;23.388;2023-07-31T01:19:14;93415.81;;;19.25;100.00
10261;BME280;5175;42.606;23.388;2023-07-31T01:22:03;93430.78;;;19.35;100.00
10261;BME280;5175;42.606;23.388;2023-07-31T01:24:42;93417.06;;;19.28;100.00
10261;BME280;5175;42.606;23.388;2023-07-31T01:27:22;93424.28;;;19.12;100.00
10261;BME280;5175;42.606;23.388;2023-07-31T01:29:57;93418.66;;;19.17;100.00
10261;BME280;5175;42.606;23.388;2023-07-31T01:32:27;93432.16;;;19.29;100.00
10261;BME280;5175;42.606;23.388;2023-07-31T01:34:55;93423.16;;;19.37;100.00
10261;BME280;5175;42.606;23.388;2023-07-31T01:37:28;93427.53;;;19.29;100.00
10261;BME280;5175;42.606;23.388;2023-07-31T01:39:55;93414.91;;;19.33;100.00
10261;BME280;5175;42.606;23.388;2023-07-31T01:42:23;93418.53;;;19.38;100.00
10261;BME280;5175;42.606;23.388;2023-07-31T01:44:50;93406.00;;;19.45;100.00
10261;BME280;5175;42.606;23.388;2023-07-31T01:47:16;93409.16;;;19.35;100.00
10261;BME280;5175;42.606;23.388;2023-07-31T01:49:43;93412.81;;;19.03;99.33
10261;BME280;5175;42.606;23.388;2023-07-31T01:52:10;93410.53;;;18.93;95.18
10261;BME280;5175;42.606;23.388;2023-07-31T01:54:37;93415.72;;;19.10;100.00
10261;BME280;5175;42.606;23.388;2023-07-31T01:57:04;93417.84;;;19.16;100.00
10261;BME280;5175;42.606;23.388;2023-07-31T01:59:32;93410.09;;;19.15;100.00
10261;BME280;5175;42.606;23.388;2023-07-31T02:01:59;93419.78;;;19.04;100.00
10261;BME280;5175;42.606;23.388;2023-07-31T02:04:25;93432.28;;;19.08;100.00
10261;BME280;5175;42.606;23.388;2023-07-31T02:06:52;93433.53;;;18.99;100.00
10261;BME280;5175;42.606;23.388;2023-07-31T02:09:19;93427.13;;;18.91;100.00
10261;BME280;5175;42.606;23.388;2023-07-31T02:11:46;93428.13;;;18.87;100.00
10261;BME280;5175;42.606;23.388;2023-07-31T02:14:13;93429.59;;;18.84;100.00
10261;BME280;5175;42.606;23.388;2023-07-31T02:16:41;93432.53;;;18.91;100.00
10261;BME280;5175;42.606;23.388;2023-07-31T02:19:08;93439.63;;;18.96;100.00
10261;BME280;5175;42.606;23.388;2023-07-31T02:21:34;93422.50;;;18.80;100.00
10261;BME280;5175;42.606;23.388;2023-07-31T02:24:01;93444.34;;;18.99;100.00
10261;BME280;5175;42.606;23.388;2023-07-31T02:26:28;93446.69;;;19.00;98.56
10261;BME280;5175;42.606;23.388;2023-07-31T02:28:55;93447.75;;;19.08;97.69
10261;BME280;5175;42.606;23.388;2023-07-31T02:31:21;93443.63;;;19.26;100.00
10261;BME280;5175;42.606;23.388;2023-07-31T02:33:49;93447.06;;;19.23;100.00
10261;BME280;5175;42.606;23.388;2023-07-31T02:36:16;93439.25;;;19.33;100.00
10261;BME280;5175;42.606;23.388;2023-07-31T02:38:43;93434.19;;;19.32;100.00
10261;BME280;5175;42.606;23.388;2023-07-31T02:41:10;93433.50;;;19.35;100.00
10261;BME280;5175;42.606;23.388;2023-07-31T02:43:36;93433.06;;;19.33;100.00
10261;BME280;5175;42.606;23.388;2023-07-31T02:46:03;93436.56;;;19.46;100.00
10261;BME280;5175;42.606;23.388;2023-07-31T02:48:30;93434.19;;;19.44;100.00
10261;BME280;5175;42.606;23.388;2023-07-31T02:50:58;93434.25;;;19.60;100.00
10261;BME280;5175;42.606;23.388;2023-07-31T02:53:25;93432.53;;;19.67;100.00
10261;BME280;5175;42.606;23.388;2023-07-31T02:55:52;93442.00;;;19.73;100.00
10261;BME280;5175;42.606;23.388;2023-07-31T02:58:18;93440.34;;;19.69;100.00
10261;BME280;5175;42.606;23.388;2023-07-31T03:00:45;93448.53;;;19.72;100.00
10261;BME280;5175;42.606;23.388;2023-07-31T03:03:12;93443.84;;;19.69;100.00
10261;BME280;5175;42.606;23.388;2023-07-31T03:05:39;93449.69;;;19.71;100.00
10261;BME280;5175;42.606;23.388;2023-07-31T03:08:07;93444.72;;;19.73;100.00
10261;BME280;5175;42.606;23.388;2023-07-31T03:10:34;93445.38;;;19.70;100.00
10261;BME280;5175;42.606;23.388;2023-07-31T03:13:01;93440.53;;;19.76;100.00
10261;BME280;5175;42.606;23.388;2023-07-31T03:15:27;93440.97;;;19.78;100.00
10261;BME280;5175;42.606;23.388;2023-07-31T03:17:54;93449.34;;;19.73;100.00
10261;BME280;5175;42.606;23.388;2023-07-31T03:20:21;93408.34;;;19.47;100.00
10261;BME280;5175;42.606;23.388;2023-07-31T03:22:48;93452.53;;;19.90;100.00
10261;BME280;5175;42.606;23.388;2023-07-31T03:25:16;93449.63;;;19.83;100.00
10261;BME280;5175;42.606;23.388;2023-07-31T03:27:43;93458.88;;;19.82;100.00
10261;BME280;5175;42.606;23.388;2023-07-31T03:30:10;93456.88;;;19.79;100.00
10261;BME280;5175;42.606;23.388;2023-07-31T03:32:37;93455.06;;;19.83;100.00
10261;BME280;5175;42.606;23.388;2023-07-31T03:35:05;93458.44;;;19.80;100.00
10261;BME280;5175;42.606;23.388;2023-07-31T03:37:32;93467.44;;;19.96;100.00
10261;BME280;5175;42.606;23.388;2023-07-31T03:39:58;93463.28;;;19.87;100.00
10261;BME280;5175;42.606;23.388;2023-07-31T03:42:26;93459.09;;;19.89;100.00
10261;BME280;5175;42.606;23.388;2023-07-31T03:44:53;93460.59;;;19.87;100.00
10261;BME280;5175;42.606;23.388;2023-07-31T03:47:20;93462.69;;;19.93;100.00
10261;BME280;5175;42.606;23.388;2023-07-31T03:49:47;93464.41;;;19.86;100.00
10261;BME280;5175;42.606;23.388;2023-07-31T03:52:13;93463.38;;;19.90;100.00
10261;BME280;5175;42.606;23.388;2023-07-31T03:54:40;93469.34;;;19.96;100.00
10261;BME280;5175;42.606;23.388;2023-07-31T03:57:09;93473.63;;;19.97;100.00
10261;BME280;5175;42.606;23.388;2023-07-31T03:59:38;93471.50;;;19.90;100.00
10261;BME280;5175;42.606;23.388;2023-07-31T04:02:05;93482.56;;;19.97;100.00
10261;BME280;5175;42.606;23.388;2023-07-31T04:04:31;93484.47;;;19.97;100.00
10261;BME280;5175;42.606;23.388;2023-07-31T04:06:58;93487.97;;;19.97;100.00
10261;BME280;5175;42.606;23.388;2023-07-31T04:09:25;93489.56;;;19.86;100.00
10261;BME280;5175;42.606;23.388;2023-07-31T04:11:52;93491.53;;;19.74;100.00
10261;BME280;5175;42.606;23.388;2023-07-31T04:14:18;93490.06;;;19.76;100.00
10261;BME280;5175;42.606;23.388;2023-07-31T04:16:46;93497.13;;;19.81;100.00
10261;BME280;5175;42.606;23.388;2023-07-31T04:19:14;93505.44;;;20.00;100.00
10261;BME280;5175;42.606;23.388;2023-07-31T04:21:42;93492.16;;;19.95;100.00
10261;BME280;5175;42.606;23.388;2023-07-31T04:24:08;93500.81;;;20.00;100.00
10261;BME280;5175;42.606;23.388;2023-07-31T04:26:35;93491.44;;;19.98;100.00
10261;BME280;5175;42.606;23.388;2023-07-31T04:29:02;93489.97;;;20.00;100.00
10261;BME280;5175;42.606;23.388;2023-07-31T04:31:28;93494.16;;;19.98;100.00
10261;BME280;5175;42.606;23.388;2023-07-31T04:33:56;93489.97;;;20.00;100.00
10261;BME280;5175;42.606;23.388;2023-07-31T04:36:23;93490.22;;;19.95;100.00
10261;BME280;5175;42.606;23.388;2023-07-31T04:38:50;93488.22;;;19.92;100.00
10261;BME280;5175;42.606;23.388;2023-07-31T04:41:17;93492.16;;;19.95;100.00
10261;BME280;5175;42.606;23.388;2023-07-31T04:43:43;93491.13;;;19.99;100.00
10261;BME280;5175;42.606;23.388;2023-07-31T04:46:10;93488.28;;;19.96;100.00
10261;BME280;5175;42.606;23.388;2023-07-31T04:48:37;93499.25;;;19.99;100.00
10261;BME280;5175;42.606;23.388;2023-07-31T04:51:05;93490.06;;;20.04;100.00
10261;BME280;5175;42.606;23.388;2023-07-31T04:53:32;93487.00;;;20.06;100.00
10261;BME280;5175;42.606;23.388;2023-07-31T04:55:59;93481.59;;;20.06;100.00
10261;BME280;5175;42.606;23.388;2023-07-31T04:58:26;93485.72;;;20.27;100.00
10261;BME280;5175;42.606;23.388;2023-07-31T05:00:52;93478.41;;;20.28;100.00
10261;BME280;5175;42.606;23.388;2023-07-31T05:03:19;93479.88;;;20.25;100.00
10261;BME280;5175;42.606;23.388;2023-07-31T05:05:46;93476.22;;;20.21;100.00
10261;BME280;5175;42.606;23.388;2023-07-31T05:08:14;93486.75;;;20.23;100.00
10261;BME280;5175;42.606;23.388;2023-07-31T05:10:42;93489.00;;;20.21;100.00
10261;BME280;5175;42.606;23.388;2023-07-31T05:13:09;93485.63;;;20.24;100.00
10261;BME280;5175;42.606;23.388;2023-07-31T05:15:36;93485.38;;;20.29;100.00
10261;BME280;5175;42.606;23.388;2023-07-31T05:18:03;93487.00;;;20.45;100.00
10261;BME280;5175;42.606;23.388;2023-07-31T05:20:29;93483.97;;;20.63;100.00
10261;BME280;5175;42.606;23.388;2023-07-31T05:22:56;93491.06;;;20.67;100.00
10261;BME280;5175;42.606;23.388;2023-07-31T05:25:24;93473.81;;;20.59;100.00
10261;BME280;5175;42.606;23.388;2023-07-31T05:27:51;93485.66;;;20.67;100.00
10261;BME280;5175;42.606;23.388;2023-07-31T05:30:18;93491.06;;;20.67;100.00
10261;BME280;5175;42.606;23.388;2023-07-31T05:32:46;93485.31;;;20.84;100.00
10261;BME280;5175;42.606;23.388;2023-07-31T05:35:13;93496.44;;;20.95;100.00
10261;BME280;5175;42.606;23.388;2023-07-31T05:37:40;93493.47;;;21.15;100.00
10261;BME280;5175;42.606;23.388;2023-07-31T05:40:07;93496.09;;;21.28;100.00
10261;BME280;5175;42.606;23.388;2023-07-31T05:42:35;93494.97;;;21.29;100.00
10261;BME280;5175;42.606;23.388;2023-07-31T05:45:05;93494.22;;;21.32;100.00
10261;BME280;5175;42.606;23.388;2023-07-31T05:47:32;93429.16;;;21.00;100.00
10261;BME280;5175;42.606;23.388;2023-07-31T05:49:58;93472.53;;;21.32;100.00
10261;BME280;5175;42.606;23.388;2023-07-31T05:52:25;93490.00;;;21.50;100.00
10261;BME280;5175;42.606;23.388;2023-07-31T05:54:52;93485.81;;;21.52;100.00
10261;BME280;5175;42.606;23.388;2023-07-31T05:57:19;93495.53;;;21.53;100.00
10261;BME280;5175;42.606;23.388;2023-07-31T05:59:47;93489.06;;;21.42;100.00
10261;BME280;5175;42.606;23.388;2023-07-31T06:02:13;93490.75;;;21.47;100.00
10261;BME280;5175;42.606;23.388;2023-07-31T06:04:40;93496.47;;;21.61;100.00
10261;BME280;5175;42.606;23.388;2023-07-31T06:07:07;93491.28;;;21.71;100.00
10261;BME280;5175;42.606;23.388;2023-07-31T06:09:34;93500.50;;;21.67;100.00
10261;BME280;5175;42.606;23.388;2023-07-31T06:12:01;93495.78;;;21.64;100.00
10261;BME280;5175;42.606;23.388;2023-07-31T06:14:27;93503.94;;;21.48;100.00
10261;BME280;5175;42.606;23.388;2023-07-31T06:16:55;93501.06;;;21.57;100.00
10261;BME280;5175;42.606;23.388;2023-07-31T06:19:22;93506.75;;;21.52;100.00
10261;BME280;5175;42.606;23.388;2023-07-31T06:21:49;93506.38;;;21.53;100.00
10261;BME280;5175;42.606;23.388;2023-07-31T06:24:16;93504.91;;;21.56;100.00
10261;BME280;5175;42.606;23.388;2023-07-31T06:26:45;93500.94;;;21.69;100.00
10261;BME280;5175;42.606;23.388;2023-07-31T06:29:12;93505.56;;;21.68;100.00
10261;BME280;5175;42.606;23.388;2023-07-31T06:31:40;93504.16;;;21.90;99.98
10261;BME280;5175;42.606;23.388;2023-07-31T06:34:08;93516.16;;;21.73;96.49
10261;BME280;5175;42.606;23.388;2023-07-31T06:36:35;93515.38;;;21.73;98.10
10261;BME280;5175;42.606;23.388;2023-07-31T06:39:02;93503.19;;;21.82;96.17
10261;BME280;5175;42.606;23.388;2023-07-31T06:41:29;93504.09;;;22.06;96.27
10261;BME280;5175;42.606;23.388;2023-07-31T06:43:56;93493.84;;;21.99;95.75
10261;BME280;5175;42.606;23.388;2023-07-31T06:46:22;93499.94;;;22.12;96.09
10261;BME280;5175;42.606;23.388;2023-07-31T06:48:49;93498.22;;;22.23;93.71
10261;BME280;5175;42.606;23.388;2023-07-31T06:51:17;93505.72;;;22.29;92.06
10261;BME280;5175;42.606;23.388;2023-07-31T06:53:44;93509.38;;;22.37;89.66
10261;BME280;5175;42.606;23.388;2023-07-31T06:56:11;93514.03;;;22.17;91.47
10261;BME280;5175;42.606;23.388;2023-07-31T06:58:38;93512.09;;;21.83;91.28
10261;BME280;5175;42.606;23.388;2023-07-31T07:01:05;93506.19;;;21.77;93.71
10261;BME280;5175;42.606;23.388;2023-07-31T07:03:32;93516.56;;;21.91;93.24
10261;BME280;5175;42.606;23.388;2023-07-31T07:05:59;93518.22;;;21.96;93.76
10261;BME280;5175;42.606;23.388;2023-07-31T07:08:27;93513.72;;;21.68;94.81
10261;BME280;5175;42.606;23.388;2023-07-31T07:10:54;93514.31;;;21.77;94.08
10261;BME280;5175;42.606;23.388;2023-07-31T07:13:21;93510.81;;;21.77;93.71
10261;BME280;5175;42.606;23.388;2023-07-31T07:15:48;93496.66;;;22.03;93.57
10261;BME280;5175;42.606;23.388;2023-07-31T07:18:15;93503.31;;;22.05;93.86
10261;BME280;5175;42.606;23.388;2023-07-31T07:20:46;93514.47;;;22.38;90.16
10261;BME280;5175;42.606;23.388;2023-07-31T07:23:13;93505.97;;;22.21;92.95
10261;BME280;5175;42.606;23.388;2023-07-31T07:25:41;93492.22;;;22.33;92.86
10261;BME280;5175;42.606;23.388;2023-07-31T07:28:08;93476.41;;;22.38;89.67
10261;BME280;5175;42.606;23.388;2023-07-31T07:30:35;93514.59;;;22.84;89.85
10261;BME280;5175;42.606;23.388;2023-07-31T07:33:02;93523.38;;;22.96;87.51
10261;BME280;5175;42.606;23.388;2023-07-31T07:35:29;93521.44;;;22.97;87.42
10261;BME280;5175;42.606;23.388;2023-07-31T07:37:56;93540.59;;;23.04;85.42
10261;BME280;5175;42.606;23.388;2023-07-31T07:40:23;93522.09;;;22.90;86.54
10261;BME280;5175;42.606;23.388;2023-07-31T07:42:51;93537.28;;;23.14;85.31
10261;BME280;5175;42.606;23.388;2023-07-31T07:45:18;93542.03;;;23.40;83.07
10261;BME280;5175;42.606;23.388;2023-07-31T07:47:44;93543.25;;;23.42;81.81
10261;BME280;5175;42.606;23.388;2023-07-31T07:50:12;93541.59;;;23.15;82.79
10261;BME280;5175;42.606;23.388;2023-07-31T07:52:39;93550.34;;;23.47;81.77
10261;BME280;5175;42.606;23.388;2023-07-31T07:55:06;93543.69;;;23.44;82.38
10261;BME280;5175;42.606;23.388;2023-07-31T07:57:33;93548.22;;;23.37;82.65
10261;BME280;5175;42.606;23.388;2023-07-31T08:00:02;93536.59;;;23.40;83.10
10261;BME280;5175;42.606;23.388;2023-07-31T08:02:29;93547.78;;;23.84;82.44
10261;BME280;5175;42.606;23.388;2023-07-31T08:04:55;93554.28;;;23.76;80.68
10261;BME280;5175;42.606;23.388;2023-07-31T08:07:22;93553.97;;;24.07;80.11
10261;BME280;5175;42.606;23.388;2023-07-31T08:09:49;93555.56;;;24.08;80.00
10261;BME280;5175;42.606;23.388;2023-07-31T08:12:16;93539.91;;;24.05;80.38
10261;BME280;5175;42.606;23.388;2023-07-31T08:14:43;93544.59;;;23.78;77.42
10261;BME280;5175;42.606;23.388;2023-07-31T08:17:11;93551.66;;;23.56;79.76
10261;BME280;5175;42.606;23.388;2023-07-31T08:19:38;93549.50;;;23.69;80.28
10261;BME280;5175;42.606;23.388;2023-07-31T08:22:05;93544.34;;;23.87;79.62
10261;BME280;5175;42.606;23.388;2023-07-31T08:24:32;93553.38;;;23.91;78.79
10261;BME280;5175;42.606;23.388;2023-07-31T08:26:59;93549.84;;;24.16;78.04
10261;BME280;5175;42.606;23.388;2023-07-31T08:29:25;93556.06;;;24.43;75.05
10261;BME280;5175;42.606;23.388;2023-07-31T08:31:52;93551.06;;;24.49;73.91
10261;BME280;5175;42.606;23.388;2023-07-31T08:34:20;93509.56;;;24.06;74.58
10261;BME280;5175;42.606;23.388;2023-07-31T08:36:47;93551.69;;;24.68;74.40
10261;BME280;5175;42.606;23.388;2023-07-31T08:39:14;93550.16;;;24.71;72.58
10261;BME280;5175;42.606;23.388;2023-07-31T08:41:41;93558.47;;;24.78;71.51
10261;BME280;5175;42.606;23.388;2023-07-31T08:44:08;93540.13;;;24.78;71.44
10261;BME280;5175;42.606;23.388;2023-07-31T08:46:35;93520.47;;;24.99;71.08
10261;BME280;5175;42.606;23.388;2023-07-31T08:49:04;93543.47;;;25.38;67.85
10261;BME280;5175;42.606;23.388;2023-07-31T08:51:33;93551.47;;;25.17;69.41
10261;BME280;5175;42.606;23.388;2023-07-31T08:54:00;93551.81;;;25.49;67.27
10261;BME280;5175;42.606;23.388;2023-07-31T08:56:29;93557.59;;;25.07;68.58
10261;BME280;5175;42.606;23.388;2023-07-31T08:58:57;93552.88;;;24.71;69.80
10261;BME280;5175;42.606;23.388;2023-07-31T09:01:26;93548.56;;;24.37;69.76
10261;BME280;5175;42.606;23.388;2023-07-31T09:03:56;93549.97;;;24.86;68.52
10261;BME280;5175;42.606;23.388;2023-07-31T09:06:25;93553.25;;;24.69;68.07
10261;BME280;5175;42.606;23.388;2023-07-31T09:08:54;93473.50;;;24.16;69.21
10261;BME280;5175;42.606;23.388;2023-07-31T09:11:21;93555.25;;;25.06;67.35
10261;BME280;5175;42.606;23.388;2023-07-31T09:13:49;93553.66;;;25.01;68.25
10261;BME280;5175;42.606;23.388;2023-07-31T09:16:16;93545.63;;;24.82;65.88
10261;BME280;5175;42.606;23.388;2023-07-31T09:18:53;93552.88;;;25.01;65.21
10261;BME280;5175;42.606;23.388;2023-07-31T09:21:22;93543.66;;;25.16;64.60
10261;BME280;5175;42.606;23.388;2023-07-31T09:23:49;93512.63;;;24.94;63.11
10261;BME280;5175;42.606;23.388;2023-07-31T09:26:35;93540.69;;;25.31;63.16
10261;BME280;5175;42.606;23.388;2023-07-31T09:29:05;93488.72;;;24.84;64.16
10261;BME280;5175;42.606;23.388;2023-07-31T09:31:38;93529.88;;;25.42;62.70
10261;BME280;5175;42.606;23.388;2023-07-31T09:34:06;93523.75;;;25.56;62.28
10261;BME280;5175;42.606;23.388;2023-07-31T09:36:40;93543.88;;;25.37;61.52
10261;BME280;5175;42.606;23.388;2023-07-31T09:39:09;93534.09;;;25.36;62.76
10261;BME280;5175;42.606;23.388;2023-07-31T09:41:38;93517.66;;;25.76;61.23
10261;BME280;5175;42.606;23.388;2023-07-31T09:44:06;93528.34;;;25.99;60.03
10261;BME280;5175;42.606;23.388;2023-07-31T09:46:35;93527.44;;;25.77;60.63
10261;BME280;5175;42.606;23.388;2023-07-31T09:49:09;93523.00;;;26.13;59.64
10261;BME280;5175;42.606;23.388;2023-07-31T09:51:37;93523.59;;;26.50;59.23
10261;BME280;5175;42.606;23.388;2023-07-31T09:54:14;93521.63;;;26.47;56.51
10261;BME280;5175;42.606;23.388;2023-07-31T09:56:44;93513.19;;;26.84;57.92
10261;BME280;5175;42.606;23.388;2023-07-31T09:59:13;93512.09;;;27.20;57.58
10261;BME280;5175;42.606;23.388;2023-07-31T10:01:41;93514.44;;;27.18;57.63
10261;BME280;5175;42.606;23.388;2023-07-31T10:04:10;93524.19;;;27.02;58.20
10261;BME280;5175;42.606;23.388;2023-07-31T10:06:38;93518.75;;;27.19;55.91
10261;BME280;5175;42.606;23.388;2023-07-31T10:09:06;93527.75;;;27.23;55.44
10261;BME280;5175;42.606;23.388;2023-07-31T10:11:38;93523.06;;;27.38;54.77
10261;BME280;5175;42.606;23.388;2023-07-31T10:14:07;93519.44;;;26.85;58.11
10261;BME280;5175;42.606;23.388;2023-07-31T10:16:35;93521.72;;;26.72;57.10
10261;BME280;5175;42.606;23.388;2023-07-31T10:19:02;93516.53;;;26.42;56.52
10261;BME280;5175;42.606;23.388;2023-07-31T10:21:29;93517.91;;;26.91;55.18
10261;BME280;5175;42.606;23.388;2023-07-31T10:24:01;93517.94;;;27.05;55.04
10261;BME280;5175;42.606;23.388;2023-07-31T10:26:29;93506.25;;;27.22;55.21
10261;BME280;5175;42.606;23.388;2023-07-31T10:28:58;93516.78;;;27.20;55.92
10261;BME280;5175;42.606;23.388;2023-07-31T10:31:26;93520.28;;;27.03;54.28
10261;BME280;5175;42.606;23.388;2023-07-31T10:33:54;93500.19;;;26.60;54.84
10261;BME280;5175;42.606;23.388;2023-07-31T10:36:22;93517.13;;;26.97;53.42
10261;BME280;5175;42.606;23.388;2023-07-31T10:38:49;93513.63;;;27.14;53.84
10261;BME280;5175;42.606;23.388;2023-07-31T10:41:16;93507.06;;;27.61;53.30
10261;BME280;5175;42.606;23.388;2023-07-31T10:43:45;93510.19;;;27.99;51.16
10261;BME280;5175;42.606;23.388;2023-07-31T10:46:13;93498.41;;;27.98;50.31
10261;BME280;5175;42.606;23.388;2023-07-31T10:48:41;93506.66;;;27.56;50.93
10261;BME280;5175;42.606;23.388;2023-07-31T10:51:09;93504.25;;;27.15;51.35
10261;BME280;5175;42.606;23.388;2023-07-31T10:53:38;93493.72;;;27.21;51.24
10261;BME280;5175;42.606;23.388;2023-07-31T10:56:06;93496.47;;;27.46;50.52
10261;BME280;5175;42.606;23.388;2023-07-31T10:58:34;93499.03;;;26.71;51.74
10261;BME280;5175;42.606;23.388;2023-07-31T11:01:02;93502.84;;;26.42;53.53
10261;BME280;5175;42.606;23.388;2023-07-31T11:03:43;93501.06;;;26.89;52.61
10261;BME280;5175;42.606;23.388;2023-07-31T11:06:10;93503.91;;;27.34;50.37
10261;BME280;5175;42.606;23.388;2023-07-31T11:08:42;93483.91;;;27.09;51.23
10261;BME280;5175;42.606;23.388;2023-07-31T11:11:10;93494.47;;;27.25;50.61
10261;BME280;5175;42.606;23.388;2023-07-31T11:13:42;93479.28;;;27.52;49.22
10261;BME280;5175;42.606;23.388;2023-07-31T11:16:10;93485.09;;;27.89;47.33
10261;BME280;5175;42.606;23.388;2023-07-31T11:18:39;93494.38;;;28.52;47.51
10261;BME280;5175;42.606;23.388;2023-07-31T11:21:08;93490.19;;;28.19;47.79
10261;BME280;5175;42.606;23.388;2023-07-31T11:23:37;93503.81;;;28.44;47.00
10261;BME280;5175;42.606;23.388;2023-07-31T11:26:06;93490.00;;;28.72;45.60
10261;BME280;5175;42.606;23.388;2023-07-31T11:28:33;93492.56;;;29.11;47.38
10261;BME280;5175;42.606;23.388;2023-07-31T11:31:01;93482.06;;;28.92;45.11
10261;BME280;5175;42.606;23.388;2023-07-31T11:33:29;93487.53;;;28.92;45.46
10261;BME280;5175;42.606;23.388;2023-07-31T11:35:56;93482.28;;;28.42;46.14
10261;BME280;5175;42.606;23.388;2023-07-31T11:38:26;93485.34;;;28.66;44.88
10261;BME280;5175;42.606;23.388;2023-07-31T11:40:55;93489.00;;;28.20;45.78
10261;BME280;5175;42.606;23.388;2023-07-31T11:43:23;93485.09;;;28.07;45.11
10261;BME280;5175;42.606;23.388;2023-07-31T11:45:51;93486.66;;;28.05;45.41
10261;BME280;5175;42.606;23.388;2023-07-31T11:48:19;93478.81;;;28.24;44.78
10261;BME280;5175;42.606;23.388;2023-07-31T11:50:48;93481.47;;;28.38;46.55
10261;BME280;5175;42.606;23.388;2023-07-31T11:53:17;93478.00;;;28.27;44.75
10261;BME280;5175;42.606;23.388;2023-07-31T11:55:46;93480.81;;;28.06;46.15
10261;BME280;5175;42.606;23.388;2023-07-31T11:58:15;93478.47;;;27.76;46.53
10261;BME280;5175;42.606;23.388;2023-07-31T12:00:43;93472.19;;;27.83;46.24
10261;BME280;5175;42.606;23.388;2023-07-31T12:03:10;93471.41;;;28.04;46.69
10261;BME280;5175;42.606;23.388;2023-07-31T12:05:37;93468.94;;;28.44;46.11
10261;BME280;5175;42.606;23.388;2023-07-31T12:08:09;93468.47;;;28.60;47.75
10261;BME280;5175;42.606;23.388;2023-07-31T12:10:36;93464.81;;;28.91;46.04
10261;BME280;5175;42.606;23.388;2023-07-31T12:13:06;93467.81;;;29.11;44.43
10261;BME280;5175;42.606;23.388;2023-07-31T12:15:37;93462.25;;;29.25;45.32
10261;BME280;5175;42.606;23.388;2023-07-31T12:18:05;93462.53;;;29.41;44.37
10261;BME280;5175;42.606;23.388;2023-07-31T12:20:33;93456.78;;;29.18;43.88
10261;BME280;5175;42.606;23.388;2023-07-31T12:23:00;93458.09;;;29.54;43.23
10261;BME280;5175;42.606;23.388;2023-07-31T12:25:33;93458.81;;;29.65;41.78
10261;BME280;5175;42.606;23.388;2023-07-31T12:28:06;93458.31;;;29.74;41.97
10261;BME280;5175;42.606;23.388;2023-07-31T12:30:38;93455.13;;;29.83;42.53
10261;BME280;5175;42.606;23.388;2023-07-31T12:33:06;93455.69;;;29.60;44.64
10261;BME280;5175;42.606;23.388;2023-07-31T12:35:41;93448.59;;;29.66;42.76
10261;BME280;5175;42.606;23.388;2023-07-31T12:38:08;93425.22;;;29.85;42.75
10261;BME280;5175;42.606;23.388;2023-07-31T12:40:37;93455.56;;;29.74;42.08
10261;BME280;5175;42.606;23.388;2023-07-31T12:43:07;93444.34;;;29.54;43.25
10261;BME280;5175;42.606;23.388;2023-07-31T12:45:34;93446.91;;;29.31;44.57
10261;BME280;5175;42.606;23.388;2023-07-31T12:48:01;93453.81;;;28.91;46.93
10261;BME280;5175;42.606;23.388;2023-07-31T12:50:28;93445.91;;;29.00;46.01
10261;BME280;5175;42.606;23.388;2023-07-31T12:52:55;93436.31;;;28.64;44.43
10261;BME280;5175;42.606;23.388;2023-07-31T12:55:22;93444.31;;;28.16;45.43
10261;BME280;5175;42.606;23.388;2023-07-31T12:57:50;93430.22;;;28.11;46.34